sensor_id;sensor_type;location;lat;lon;timestamp;P1;durP1;ratioP1;P2;durP2;ratioP2
9076;SDS011;4574;51.072;17.174;2023-04-15T00:01:14;12.10;;;8.83;;
9076;SDS011;4574;51.072;17.174;2023-04-15T00:03:47;11.60;;;8.70;;
9076;SDS011;4574;51.072;17.174;2023-04-15T00:06:18;14.77;;;9.00;;
9076;SDS011;4574;51.072;17.174;2023-04-15T00:08:47;10.67;;;8.70;;
9076;SDS011;4574;51.072;17.174;2023-04-15T00:11:18;12.63;;;8.40;;
9076;SDS011;4574;51.072;17.174;2023-04-15T00:13:46;15.60;;;9.57;;
9076;SDS011;4574;51.072;17.174;2023-04-15T00:16:15;10.77;;;8.60;;
9076;SDS011;4574;51.072;17.174;2023-04-15T00:18:43;11.43;;;8.17;;
9076;SDS011;4574;51.072;17.174;2023-04-15T00:21:12;13.83;;;8.90;;
9076;SDS011;4574;51.072;17.174;2023-04-15T00:23:41;13.20;;;8.77;;
9076;SDS011;4574;51.072;17.174;2023-04-15T00:26:10;11.90;;;8.77;;
9076;SDS011;4574;51.072;17.174;2023-04-15T00:28:40;11.30;;;8.80;;
9076;SDS011;4574;51.072;17.174;2023-04-15T00:31:09;13.20;;;9.53;;
9076;SDS011;4574;51.072;17.174;2023-04-15T00:33:37;11.67;;;8.80;;
9076;SDS011;4574;51.072;17.174;2023-04-15T00:36:06;13.87;;;8.70;;
9076;SDS011;4574;51.072;17.174;2023-04-15T00:38:36;11.57;;;8.67;;
9076;SDS011;4574;51.072;17.174;2023-04-15T00:41:05;9.60;;;8.27;;
9076;SDS011;4574;51.072;17.174;2023-04-15T00:43:34;10.90;;;9.20;;
9076;SDS011;4574;51.072;17.174;2023-04-15T00:46:05;17.20;;;9.27;;
9076;SDS011;4574;51.072;17.174;2023-04-15T00:48:35;11.03;;;8.83;;
9076;SDS011;4574;51.072;17.174;2023-04-15T00:51:04;11.27;;;8.73;;
9076;SDS011;4574;51.072;17.174;2023-04-15T00:53:35;12.93;;;9.33;;
9076;SDS011;4574;51.072;17.174;2023-04-15T00:56:04;10.83;;;9.50;;
9076;SDS011;4574;51.072;17.174;2023-04-15T00:58:33;9.53;;;8.30;;
9076;SDS011;4574;51.072;17.174;2023-04-15T01:01:02;10.63;;;8.77;;
9076;SDS011;4574;51.072;17.174;2023-04-15T01:03:33;10.70;;;8.53;;
9076;SDS011;4574;51.072;17.174;2023-04-15T01:06:02;10.47;;;8.43;;
9076;SDS011;4574;51.072;17.174;2023-04-15T01:08:31;11.77;;;9.10;;
9076;SDS011;4574;51.072;17.174;2023-04-15T01:11:00;10.80;;;8.27;;
9076;SDS011;4574;51.072;17.174;2023-04-15T01:13:29;16.30;;;8.83;;
9076;SDS011;4574;51.072;17.174;2023-04-15T01:15:58;13.43;;;9.50;;
9076;SDS011;4574;51.072;17.174;2023-04-15T01:18:30;11.10;;;8.70;;
9076;SDS011;4574;51.072;17.174;2023-04-15T01:20:59;13.03;;;9.07;;
9076;SDS011;4574;51.072;17.174;2023-04-15T01:23:29;11.50;;;8.57;;
9076;SDS011;4574;51.072;17.174;2023-04-15T01:25:59;12.00;;;8.87;;
9076;SDS011;4574;51.072;17.174;2023-04-15T01:28:29;11.63;;;8.67;;
9076;SDS011;4574;51.072;17.174;2023-04-15T01:31:05;11.10;;;8.70;;
9076;SDS011;4574;51.072;17.174;2023-04-15T01:33:34;11.53;;;8.60;;
9076;SDS011;4574;51.072;17.174;2023-04-15T01:36:04;13.70;;;9.17;;
9076;SDS011;4574;51.072;17.174;2023-04-15T01:38:36;11.47;;;9.10;;
9076;SDS011;4574;51.072;17.174;2023-04-15T01:41:06;12.20;;;8.80;;
9076;SDS011;4574;51.072;17.174;2023-04-15T01:43:35;13.20;;;8.50;;
9076;SDS011;4574;51.072;17.174;2023-04-15T01:46:04;13.43;;;9.20;;
9076;SDS011;4574;51.072;17.174;2023-04-15T01:48:32;11.50;;;9.00;;
9076;SDS011;4574;51.072;17.174;2023-04-15T01:51:04;11.90;;;8.30;;
9076;SDS011;4574;51.072;17.174;2023-04-15T01:53:33;10.77;;;8.30;;
9076;SDS011;4574;51.072;17.174;2023-04-15T01:56:02;12.10;;;8.90;;
9076;SDS011;4574;51.072;17.174;2023-04-15T01:58:32;12.67;;;8.63;;
9076;SDS011;4574;51.072;17.174;2023-04-15T02:01:03;10.57;;;8.97;;
9076;SDS011;4574;51.072;17.174;2023-04-15T02:03:32;12.27;;;8.83;;
9076;SDS011;4574;51.072;17.174;2023-04-15T02:06:01;12.03;;;9.13;;
9076;SDS011;4574;51.072;17.174;2023-04-15T02:08:30;11.33;;;9.10;;
9076;SDS011;4574;51.072;17.174;2023-04-15T02:10:59;12.70;;;8.63;;
9076;SDS011;4574;51.072;17.174;2023-04-15T02:13:28;11.53;;;9.40;;
9076;SDS011;4574;51.072;17.174;2023-04-15T02:15:58;14.63;;;9.40;;
9076;SDS011;4574;51.072;17.174;2023-04-15T02:18:26;13.27;;;8.97;;
9076;SDS011;4574;51.072;17.174;2023-04-15T02:20:55;10.43;;;8.50;;
9076;SDS011;4574;51.072;17.174;2023-04-15T02:23:24;12.80;;;9.37;;
9076;SDS011;4574;51.072;17.174;2023-04-15T02:25:52;14.70;;;9.57;;
9076;SDS011;4574;51.072;17.174;2023-04-15T02:28:21;13.30;;;9.47;;
9076;SDS011;4574;51.072;17.174;2023-04-15T02:30:49;18.23;;;9.53;;
9076;SDS011;4574;51.072;17.174;2023-04-15T02:33:21;14.53;;;9.93;;
9076;SDS011;4574;51.072;17.174;2023-04-15T02:35:50;13.53;;;9.47;;
9076;SDS011;4574;51.072;17.174;2023-04-15T02:38:19;14.67;;;9.90;;
9076;SDS011;4574;51.072;17.174;2023-04-15T02:40:48;13.23;;;10.20;;
9076;SDS011;4574;51.072;17.174;2023-04-15T02:43:16;12.93;;;10.43;;
9076;SDS011;4574;51.072;17.174;2023-04-15T02:45:45;19.93;;;9.83;;
9076;SDS011;4574;51.072;17.174;2023-04-15T02:48:15;15.07;;;10.43;;
9076;SDS011;4574;51.072;17.174;2023-04-15T02:50:46;16.10;;;10.97;;
9076;SDS011;4574;51.072;17.174;2023-04-15T02:53:15;13.67;;;10.13;;
9076;SDS011;4574;51.072;17.174;2023-04-15T02:55:45;13.40;;;10.33;;
9076;SDS011;4574;51.072;17.174;2023-04-15T02:58:14;14.53;;;10.73;;
9076;SDS011;4574;51.072;17.174;2023-04-15T03:00:42;13.80;;;10.37;;
9076;SDS011;4574;51.072;17.174;2023-04-15T03:03:11;14.60;;;10.73;;
9076;SDS011;4574;51.072;17.174;2023-04-15T03:05:41;13.50;;;10.60;;
9076;SDS011;4574;51.072;17.174;2023-04-15T03:08:10;12.03;;;9.67;;
9076;SDS011;4574;51.072;17.174;2023-04-15T03:10:40;15.87;;;9.50;;
9076;SDS011;4574;51.072;17.174;2023-04-15T03:13:09;11.27;;;9.53;;
9076;SDS011;4574;51.072;17.174;2023-04-15T03:15:37;11.27;;;8.60;;
9076;SDS011;4574;51.072;17.174;2023-04-15T03:18:06;11.50;;;8.67;;
9076;SDS011;4574;51.072;17.174;2023-04-15T03:20:34;10.63;;;8.40;;
9076;SDS011;4574;51.072;17.174;2023-04-15T03:23:03;10.63;;;8.27;;
9076;SDS011;4574;51.072;17.174;2023-04-15T03:25:33;12.90;;;8.77;;
9076;SDS011;4574;51.072;17.174;2023-04-15T03:28:03;11.53;;;8.07;;
9076;SDS011;4574;51.072;17.174;2023-04-15T03:30:31;10.13;;;7.57;;
9076;SDS011;4574;51.072;17.174;2023-04-15T03:33:00;10.93;;;7.57;;
9076;SDS011;4574;51.072;17.174;2023-04-15T03:35:29;8.13;;;6.57;;
9076;SDS011;4574;51.072;17.174;2023-04-15T03:37:58;8.80;;;7.40;;
9076;SDS011;4574;51.072;17.174;2023-04-15T03:40:26;8.87;;;6.83;;
9076;SDS011;4574;51.072;17.174;2023-04-15T03:42:56;9.37;;;6.67;;
9076;SDS011;4574;51.072;17.174;2023-04-15T03:45:25;7.63;;;6.73;;
9076;SDS011;4574;51.072;17.174;2023-04-15T03:47:53;9.47;;;6.87;;
9076;SDS011;4574;51.072;17.174;2023-04-15T03:50:36;7.87;;;6.23;;
9076;SDS011;4574;51.072;17.174;2023-04-15T03:53:05;8.33;;;5.90;;
9076;SDS011;4574;51.072;17.174;2023-04-15T03:55:33;6.30;;;5.17;;
9076;SDS011;4574;51.072;17.174;2023-04-15T03:58:04;5.03;;;4.40;;
9076;SDS011;4574;51.072;17.174;2023-04-15T04:00:32;4.87;;;3.80;;
9076;SDS011;4574;51.072;17.174;2023-04-15T04:03:01;3.97;;;3.50;;
9076;SDS011;4574;51.072;17.174;2023-04-15T04:05:29;3.93;;;3.07;;
9076;SDS011;4574;51.072;17.174;2023-04-15T04:07:58;3.33;;;2.67;;
9076;SDS011;4574;51.072;17.174;2023-04-15T04:10:26;3.47;;;2.50;;
9076;SDS011;4574;51.072;17.174;2023-04-15T04:12:55;2.57;;;2.37;;
9076;SDS011;4574;51.072;17.174;2023-04-15T04:15:25;2.10;;;2.00;;
9076;SDS011;4574;51.072;17.174;2023-04-15T04:17:54;2.00;;;1.90;;
9076;SDS011;4574;51.072;17.174;2023-04-15T04:20:23;3.87;;;2.93;;
9076;SDS011;4574;51.072;17.174;2023-04-15T04:22:51;29.10;;;12.77;;
9076;SDS011;4574;51.072;17.174;2023-04-15T04:25:20;9.63;;;6.00;;
9076;SDS011;4574;51.072;17.174;2023-04-15T04:27:49;6.47;;;4.10;;
9076;SDS011;4574;51.072;17.174;2023-04-15T04:30:17;3.53;;;2.77;;
9076;SDS011;4574;51.072;17.174;2023-04-15T04:32:47;2.73;;;2.00;;
9076;SDS011;4574;51.072;17.174;2023-04-15T04:35:17;3.03;;;2.13;;
9076;SDS011;4574;51.072;17.174;2023-04-15T04:37:46;3.73;;;2.40;;
9076;SDS011;4574;51.072;17.174;2023-04-15T04:40:14;3.67;;;2.80;;
9076;SDS011;4574;51.072;17.174;2023-04-15T04:42:43;3.63;;;2.70;;
9076;SDS011;4574;51.072;17.174;2023-04-15T04:45:12;2.20;;;2.03;;
9076;SDS011;4574;51.072;17.174;2023-04-15T04:47:40;2.17;;;1.93;;
9076;SDS011;4574;51.072;17.174;2023-04-15T04:50:10;3.33;;;1.80;;
9076;SDS011;4574;51.072;17.174;2023-04-15T04:52:39;2.40;;;2.20;;
9076;SDS011;4574;51.072;17.174;2023-04-15T04:55:08;1.93;;;1.83;;
9076;SDS011;4574;51.072;17.174;2023-04-15T04:57:37;1.43;;;1.33;;
9076;SDS011;4574;51.072;17.174;2023-04-15T05:00:06;1.40;;;1.30;;
9076;SDS011;4574;51.072;17.174;2023-04-15T05:02:35;1.60;;;1.50;;
9076;SDS011;4574;51.072;17.174;2023-04-15T05:05:05;1.10;;;1.10;;
9076;SDS011;4574;51.072;17.174;2023-04-15T05:07:35;1.43;;;1.17;;
9076;SDS011;4574;51.072;17.174;2023-04-15T05:10:05;1.17;;;1.17;;
9076;SDS011;4574;51.072;17.174;2023-04-15T05:12:35;1.37;;;1.33;;
9076;SDS011;4574;51.072;17.174;2023-04-15T05:15:04;1.10;;;1.10;;
9076;SDS011;4574;51.072;17.174;2023-04-15T05:17:34;1.20;;;1.10;;
9076;SDS011;4574;51.072;17.174;2023-04-15T05:20:03;1.33;;;1.30;;
9076;SDS011;4574;51.072;17.174;2023-04-15T05:22:32;1.37;;;1.27;;
9076;SDS011;4574;51.072;17.174;2023-04-15T05:25:02;1.30;;;1.20;;
9076;SDS011;4574;51.072;17.174;2023-04-15T05:27:31;1.37;;;1.27;;
9076;SDS011;4574;51.072;17.174;2023-04-15T05:30:00;2.30;;;1.10;;
9076;SDS011;4574;51.072;17.174;2023-04-15T05:32:29;2.87;;;1.00;;
9076;SDS011;4574;51.072;17.174;2023-04-15T05:34:57;1.17;;;1.17;;
9076;SDS011;4574;51.072;17.174;2023-04-15T05:37:26;4.70;;;1.10;;
9076;SDS011;4574;51.072;17.174;2023-04-15T05:39:54;2.00;;;1.20;;
9076;SDS011;4574;51.072;17.174;2023-04-15T05:42:25;1.00;;;1.00;;
9076;SDS011;4574;51.072;17.174;2023-04-15T05:44:54;1.10;;;1.10;;
9076;SDS011;4574;51.072;17.174;2023-04-15T05:47:23;3.17;;;1.27;;
9076;SDS011;4574;51.072;17.174;2023-04-15T05:49:51;1.17;;;1.07;;
9076;SDS011;4574;51.072;17.174;2023-04-15T05:52:21;1.33;;;1.20;;
9076;SDS011;4574;51.072;17.174;2023-04-15T05:54:49;1.13;;;1.13;;
9076;SDS011;4574;51.072;17.174;2023-04-15T05:57:18;1.73;;;1.13;;
9076;SDS011;4574;51.072;17.174;2023-04-15T05:59:48;1.60;;;1.50;;
9076;SDS011;4574;51.072;17.174;2023-04-15T06:02:18;1.57;;;1.47;;
9076;SDS011;4574;51.072;17.174;2023-04-15T06:04:46;1.60;;;1.40;;
9076;SDS011;4574;51.072;17.174;2023-04-15T06:07:15;1.40;;;1.30;;
9076;SDS011;4574;51.072;17.174;2023-04-15T06:09:44;1.70;;;1.60;;
9076;SDS011;4574;51.072;17.174;2023-04-15T06:12:12;3.83;;;2.30;;
9076;SDS011;4574;51.072;17.174;2023-04-15T06:14:41;1.70;;;1.60;;
9076;SDS011;4574;51.072;17.174;2023-04-15T06:17:11;1.37;;;1.27;;
9076;SDS011;4574;51.072;17.174;2023-04-15T06:19:40;1.40;;;1.30;;
9076;SDS011;4574;51.072;17.174;2023-04-15T06:22:09;2.47;;;1.13;;
9076;SDS011;4574;51.072;17.174;2023-04-15T06:24:38;1.20;;;1.10;;
9076;SDS011;4574;51.072;17.174;2023-04-15T06:27:06;1.10;;;1.10;;
9076;SDS011;4574;51.072;17.174;2023-04-15T06:29:35;1.30;;;1.20;;
9076;SDS011;4574;51.072;17.174;2023-04-15T06:32:04;1.40;;;1.30;;
9076;SDS011;4574;51.072;17.174;2023-04-15T06:34:34;2.10;;;1.27;;
9076;SDS011;4574;51.072;17.174;2023-04-15T06:37:03;1.70;;;1.20;;
9076;SDS011;4574;51.072;17.174;2023-04-15T06:39:32;1.27;;;1.10;;
9076;SDS011;4574;51.072;17.174;2023-04-15T06:42:01;1.53;;;1.40;;
9076;SDS011;4574;51.072;17.174;2023-04-15T06:44:30;1.57;;;1.47;;
9076;SDS011;4574;51.072;17.174;2023-04-15T06:46:59;1.50;;;1.40;;
9076;SDS011;4574;51.072;17.174;2023-04-15T06:49:28;1.43;;;1.20;;
9076;SDS011;4574;51.072;17.174;2023-04-15T06:51:58;1.23;;;1.20;;
9076;SDS011;4574;51.072;17.174;2023-04-15T06:54:27;1.60;;;1.50;;
9076;SDS011;4574;51.072;17.174;2023-04-15T06:56:56;2.57;;;1.37;;
9076;SDS011;4574;51.072;17.174;2023-04-15T06:59:24;1.90;;;1.60;;
9076;SDS011;4574;51.072;17.174;2023-04-15T07:01:53;1.90;;;1.80;;
9076;SDS011;4574;51.072;17.174;2023-04-15T07:04:22;2.80;;;1.53;;
9076;SDS011;4574;51.072;17.174;2023-04-15T07:06:51;2.10;;;1.90;;
9076;SDS011;4574;51.072;17.174;2023-04-15T07:09:21;2.30;;;2.10;;
9076;SDS011;4574;51.072;17.174;2023-04-15T07:11:50;2.10;;;1.80;;
9076;SDS011;4574;51.072;17.174;2023-04-15T07:14:18;2.73;;;2.40;;
9076;SDS011;4574;51.072;17.174;2023-04-15T07:16:47;2.10;;;1.90;;
9076;SDS011;4574;51.072;17.174;2023-04-15T07:19:16;2.10;;;1.90;;
9076;SDS011;4574;51.072;17.174;2023-04-15T07:21:45;1.83;;;1.73;;
9076;SDS011;4574;51.072;17.174;2023-04-15T07:24:14;2.13;;;1.57;;
9076;SDS011;4574;51.072;17.174;2023-04-15T07:26:46;2.23;;;1.50;;
9076;SDS011;4574;51.072;17.174;2023-04-15T07:29:15;1.87;;;1.50;;
9076;SDS011;4574;51.072;17.174;2023-04-15T07:31:44;3.67;;;1.70;;
9076;SDS011;4574;51.072;17.174;2023-04-15T07:34:12;1.93;;;1.70;;
9076;SDS011;4574;51.072;17.174;2023-04-15T07:36:42;2.63;;;2.30;;
9076;SDS011;4574;51.072;17.174;2023-04-15T07:39:11;2.20;;;2.00;;
9076;SDS011;4574;51.072;17.174;2023-04-15T07:41:40;3.83;;;3.00;;
9076;SDS011;4574;51.072;17.174;2023-04-15T07:44:10;2.77;;;2.43;;
9076;SDS011;4574;51.072;17.174;2023-04-15T07:46:41;2.40;;;2.20;;
9076;SDS011;4574;51.072;17.174;2023-04-15T07:49:10;2.63;;;2.30;;
9076;SDS011;4574;51.072;17.174;2023-04-15T07:51:39;4.67;;;2.73;;
9076;SDS011;4574;51.072;17.174;2023-04-15T07:54:07;3.97;;;2.33;;
9076;SDS011;4574;51.072;17.174;2023-04-15T07:56:36;2.53;;;2.10;;
9076;SDS011;4574;51.072;17.174;2023-04-15T07:59:04;4.77;;;2.57;;
9076;SDS011;4574;51.072;17.174;2023-04-15T08:01:34;2.63;;;2.43;;
9076;SDS011;4574;51.072;17.174;2023-04-15T08:04:03;3.03;;;2.20;;
9076;SDS011;4574;51.072;17.174;2023-04-15T08:06:32;2.73;;;2.10;;
9076;SDS011;4574;51.072;17.174;2023-04-15T08:09:01;2.30;;;2.03;;
9076;SDS011;4574;51.072;17.174;2023-04-15T08:11:30;2.20;;;1.50;;
9076;SDS011;4574;51.072;17.174;2023-04-15T08:13:59;1.00;;;1.00;;
9076;SDS011;4574;51.072;17.174;2023-04-15T08:16:27;1.80;;;1.43;;
9076;SDS011;4574;51.072;17.174;2023-04-15T08:18:58;1.40;;;1.30;;
9076;SDS011;4574;51.072;17.174;2023-04-15T08:21:27;1.73;;;1.40;;
9076;SDS011;4574;51.072;17.174;2023-04-15T08:23:58;1.30;;;1.20;;
9076;SDS011;4574;51.072;17.174;2023-04-15T08:26:27;1.03;;;1.03;;
9076;SDS011;4574;51.072;17.174;2023-04-15T08:28:56;1.97;;;1.20;;
9076;SDS011;4574;51.072;17.174;2023-04-15T08:31:26;1.70;;;0.90;;
9076;SDS011;4574;51.072;17.174;2023-04-15T08:33:58;1.30;;;1.20;;
9076;SDS011;4574;51.072;17.174;2023-04-15T08:36:27;1.30;;;1.20;;
9076;SDS011;4574;51.072;17.174;2023-04-15T08:38:55;1.17;;;1.00;;
9076;SDS011;4574;51.072;17.174;2023-04-15T08:41:24;0.90;;;0.90;;
9076;SDS011;4574;51.072;17.174;2023-04-15T08:43:56;0.77;;;0.77;;
9076;SDS011;4574;51.072;17.174;2023-04-15T08:46:25;1.10;;;1.00;;
9076;SDS011;4574;51.072;17.174;2023-04-15T08:48:54;0.80;;;0.80;;
9076;SDS011;4574;51.072;17.174;2023-04-15T08:51:26;2.97;;;0.97;;
9076;SDS011;4574;51.072;17.174;2023-04-15T08:53:54;0.83;;;0.83;;
9076;SDS011;4574;51.072;17.174;2023-04-15T08:56:23;1.73;;;1.43;;
9076;SDS011;4574;51.072;17.174;2023-04-15T08:58:53;0.80;;;0.80;;
9076;SDS011;4574;51.072;17.174;2023-04-15T09:01:22;0.80;;;0.80;;
9076;SDS011;4574;51.072;17.174;2023-04-15T09:03:51;0.87;;;0.87;;
9076;SDS011;4574;51.072;17.174;2023-04-15T09:06:21;0.70;;;0.70;;
9076;SDS011;4574;51.072;17.174;2023-04-15T09:08:51;0.67;;;0.67;;
9076;SDS011;4574;51.072;17.174;2023-04-15T09:11:20;0.80;;;0.80;;
9076;SDS011;4574;51.072;17.174;2023-04-15T09:13:50;0.50;;;0.50;;
9076;SDS011;4574;51.072;17.174;2023-04-15T09:16:18;0.70;;;0.70;;
9076;SDS011;4574;51.072;17.174;2023-04-15T09:18:47;0.77;;;0.70;;
9076;SDS011;4574;51.072;17.174;2023-04-15T09:21:16;0.80;;;0.80;;
9076;SDS011;4574;51.072;17.174;2023-04-15T09:23:57;0.90;;;0.80;;
9076;SDS011;4574;51.072;17.174;2023-04-15T09:26:33;1.10;;;1.00;;
9076;SDS011;4574;51.072;17.174;2023-04-15T09:29:04;0.77;;;0.77;;
9076;SDS011;4574;51.072;17.174;2023-04-15T09:31:33;0.70;;;0.70;;
9076;SDS011;4574;51.072;17.174;2023-04-15T09:34:02;0.80;;;0.80;;
9076;SDS011;4574;51.072;17.174;2023-04-15T09:36:35;1.00;;;0.90;;
9076;SDS011;4574;51.072;17.174;2023-04-15T09:39:20;0.70;;;0.70;;
9076;SDS011;4574;51.072;17.174;2023-04-15T09:42:03;0.60;;;0.60;;
9076;SDS011;4574;51.072;17.174;2023-04-15T09:44:33;3.10;;;1.97;;
9076;SDS011;4574;51.072;17.174;2023-04-15T09:47:02;6.87;;;1.33;;
9076;SDS011;4574;51.072;17.174;2023-04-15T09:49:31;1.43;;;1.27;;
9076;SDS011;4574;51.072;17.174;2023-04-15T09:52:00;1.47;;;1.00;;
9076;SDS011;4574;51.072;17.174;2023-04-15T09:54:34;1.10;;;0.70;;
9076;SDS011;4574;51.072;17.174;2023-04-15T09:57:06;0.60;;;0.60;;
9076;SDS011;4574;51.072;17.174;2023-04-15T09:59:36;0.73;;;0.70;;
9076;SDS011;4574;51.072;17.174;2023-04-15T10:02:05;1.23;;;1.00;;
9076;SDS011;4574;51.072;17.174;2023-04-15T10:04:34;1.90;;;1.00;;
9076;SDS011;4574;51.072;17.174;2023-04-15T10:07:07;1.63;;;1.27;;
9076;SDS011;4574;51.072;17.174;2023-04-15T10:09:38;0.80;;;0.80;;
9076;SDS011;4574;51.072;17.174;2023-04-15T10:12:06;1.00;;;0.70;;
9076;SDS011;4574;51.072;17.174;2023-04-15T10:14:36;1.17;;;0.80;;
9076;SDS011;4574;51.072;17.174;2023-04-15T10:17:05;0.77;;;0.77;;
9076;SDS011;4574;51.072;17.174;2023-04-15T10:19:38;1.00;;;0.70;;
9076;SDS011;4574;51.072;17.174;2023-04-15T10:22:08;3.20;;;0.73;;
9076;SDS011;4574;51.072;17.174;2023-04-15T10:24:39;1.10;;;0.70;;
9076;SDS011;4574;51.072;17.174;2023-04-15T10:27:09;0.70;;;0.70;;
9076;SDS011;4574;51.072;17.174;2023-04-15T10:29:37;0.80;;;0.60;;
9076;SDS011;4574;51.072;17.174;2023-04-15T10:32:07;1.10;;;0.90;;
9076;SDS011;4574;51.072;17.174;2023-04-15T10:34:37;2.23;;;1.00;;
9076;SDS011;4574;51.072;17.174;2023-04-15T10:37:08;4.47;;;0.80;;
9076;SDS011;4574;51.072;17.174;2023-04-15T10:39:40;3.40;;;0.80;;
9076;SDS011;4574;51.072;17.174;2023-04-15T10:42:11;0.60;;;0.60;;
9076;SDS011;4574;51.072;17.174;2023-04-15T10:44:41;0.60;;;0.60;;
9076;SDS011;4574;51.072;17.174;2023-04-15T10:47:12;0.50;;;0.50;;
9076;SDS011;4574;51.072;17.174;2023-04-15T10:49:48;0.50;;;0.50;;
9076;SDS011;4574;51.072;17.174;2023-04-15T10:52:21;0.50;;;0.50;;
9076;SDS011;4574;51.072;17.174;2023-04-15T10:55:01;0.53;;;0.53;;
9076;SDS011;4574;51.072;17.174;2023-04-15T10:57:33;0.50;;;0.50;;
9076;SDS011;4574;51.072;17.174;2023-04-15T11:00:11;0.53;;;0.53;;
9076;SDS011;4574;51.072;17.174;2023-04-15T11:02:42;1.20;;;0.73;;
9076;SDS011;4574;51.072;17.174;2023-04-15T11:05:13;0.80;;;0.80;;
9076;SDS011;4574;51.072;17.174;2023-04-15T11:07:50;0.70;;;0.70;;
9076;SDS011;4574;51.072;17.174;2023-04-15T11:13:24;0.73;;;0.67;;
9076;SDS011;4574;51.072;17.174;2023-04-15T11:15:56;2.40;;;0.70;;
9076;SDS011;4574;51.072;17.174;2023-04-15T11:18:29;0.53;;;0.53;;
9076;SDS011;4574;51.072;17.174;2023-04-15T11:20:59;0.50;;;0.50;;
9076;SDS011;4574;51.072;17.174;2023-04-15T11:23:31;0.53;;;0.53;;
9076;SDS011;4574;51.072;17.174;2023-04-15T11:26:03;0.50;;;0.50;;
9076;SDS011;4574;51.072;17.174;2023-04-15T11:28:35;0.77;;;0.77;;
9076;SDS011;4574;51.072;17.174;2023-04-15T11:31:05;0.50;;;0.50;;
9076;SDS011;4574;51.072;17.174;2023-04-15T11:33:36;0.50;;;0.50;;
9076;SDS011;4574;51.072;17.174;2023-04-15T11:36:07;0.53;;;0.53;;
9076;SDS011;4574;51.072;17.174;2023-04-15T11:38:41;0.50;;;0.50;;
9076;SDS011;4574;51.072;17.174;2023-04-15T11:41:12;0.87;;;0.50;;
9076;SDS011;4574;51.072;17.174;2023-04-15T11:43:41;0.53;;;0.53;;
9076;SDS011;4574;51.072;17.174;2023-04-15T11:46:09;0.50;;;0.50;;
9076;SDS011;4574;51.072;17.174;2023-04-15T11:48:41;0.73;;;0.60;;
9076;SDS011;4574;51.072;17.174;2023-04-15T11:51:11;0.60;;;0.60;;
9076;SDS011;4574;51.072;17.174;2023-04-15T11:53:41;0.50;;;0.50;;
9076;SDS011;4574;51.072;17.174;2023-04-15T11:56:17;0.60;;;0.60;;
9076;SDS011;4574;51.072;17.174;2023-04-15T11:58:47;0.60;;;0.60;;
9076;SDS011;4574;51.072;17.174;2023-04-15T12:01:18;0.70;;;0.70;;
9076;SDS011;4574;51.072;17.174;2023-04-15T12:03:48;0.60;;;0.60;;
9076;SDS011;4574;51.072;17.174;2023-04-15T12:06:17;0.70;;;0.70;;
9076;SDS011;4574;51.072;17.174;2023-04-15T12:11:39;0.60;;;0.60;;
9076;SDS011;4574;51.072;17.174;2023-04-15T12:14:11;0.83;;;0.80;;
9076;SDS011;4574;51.072;17.174;2023-04-15T12:16:43;0.70;;;0.70;;
9076;SDS011;4574;51.072;17.174;2023-04-15T12:19:18;0.80;;;0.80;;
9076;SDS011;4574;51.072;17.174;2023-04-15T12:21:52;0.70;;;0.70;;
9076;SDS011;4574;51.072;17.174;2023-04-15T12:24:26;0.70;;;0.70;;
9076;SDS011;4574;51.072;17.174;2023-04-15T12:26:57;6.37;;;3.97;;
9076;SDS011;4574;51.072;17.174;2023-04-15T12:29:30;5.07;;;3.97;;
9076;SDS011;4574;51.072;17.174;2023-04-15T12:32:03;0.80;;;0.80;;
9076;SDS011;4574;51.072;17.174;2023-04-15T12:34:34;1.07;;;0.97;;
9076;SDS011;4574;51.072;17.174;2023-04-15T12:37:04;1.03;;;1.03;;
9076;SDS011;4574;51.072;17.174;2023-04-15T12:39:35;0.83;;;0.83;;
9076;SDS011;4574;51.072;17.174;2023-04-15T12:42:07;0.70;;;0.70;;
9076;SDS011;4574;51.072;17.174;2023-04-15T12:44:37;0.83;;;0.83;;
9076;SDS011;4574;51.072;17.174;2023-04-15T12:47:07;0.67;;;0.67;;
9076;SDS011;4574;51.072;17.174;2023-04-15T12:49:36;0.50;;;0.50;;
9076;SDS011;4574;51.072;17.174;2023-04-15T12:52:05;0.60;;;0.60;;
9076;SDS011;4574;51.072;17.174;2023-04-15T12:54:34;0.90;;;0.80;;
9076;SDS011;4574;51.072;17.174;2023-04-15T12:57:03;0.70;;;0.70;;
9076;SDS011;4574;51.072;17.174;2023-04-15T12:59:34;1.53;;;0.60;;
9076;SDS011;4574;51.072;17.174;2023-04-15T13:02:03;0.50;;;0.50;;
9076;SDS011;4574;51.072;17.174;2023-04-15T13:04:32;0.63;;;0.63;;
9076;SDS011;4574;51.072;17.174;2023-04-15T13:07:01;0.63;;;0.63;;
9076;SDS011;4574;51.072;17.174;2023-04-15T13:09:29;0.70;;;0.70;;
9076;SDS011;4574;51.072;17.174;2023-04-15T13:11:58;0.60;;;0.60;;
9076;SDS011;4574;51.072;17.174;2023-04-15T13:14:27;0.60;;;0.60;;
9076;SDS011;4574;51.072;17.174;2023-04-15T13:16:58;0.70;;;0.70;;
9076;SDS011;4574;51.072;17.174;2023-04-15T13:19:27;2.43;;;0.60;;
9076;SDS011;4574;51.072;17.174;2023-04-15T13:21:55;0.50;;;0.50;;
9076;SDS011;4574;51.072;17.174;2023-04-15T13:24:24;0.70;;;0.70;;
9076;SDS011;4574;51.072;17.174;2023-04-15T13:26:53;0.50;;;0.50;;
9076;SDS011;4574;51.072;17.174;2023-04-15T13:29:24;0.60;;;0.60;;
9076;SDS011;4574;51.072;17.174;2023-04-15T13:31:53;1.23;;;0.90;;
9076;SDS011;4574;51.072;17.174;2023-04-15T13:34:24;1.10;;;0.80;;
9076;SDS011;4574;51.072;17.174;2023-04-15T13:36:53;14.13;;;11.40;;
9076;SDS011;4574;51.072;17.174;2023-04-15T13:39:22;6.53;;;4.20;;
9076;SDS011;4574;51.072;17.174;2023-04-15T13:41:51;7.97;;;2.73;;
9076;SDS011;4574;51.072;17.174;2023-04-15T13:44:20;3.43;;;1.93;;
9076;SDS011;4574;51.072;17.174;2023-04-15T13:46:48;19.17;;;4.23;;
9076;SDS011;4574;51.072;17.174;2023-04-15T13:49:17;24.93;;;6.33;;
9076;SDS011;4574;51.072;17.174;2023-04-15T13:51:47;20.33;;;7.77;;
9076;SDS011;4574;51.072;17.174;2023-04-15T13:54:15;2.57;;;1.40;;
9076;SDS011;4574;51.072;17.174;2023-04-15T13:56:44;12.30;;;4.47;;
9076;SDS011;4574;51.072;17.174;2023-04-15T13:59:12;9.67;;;5.13;;
9076;SDS011;4574;51.072;17.174;2023-04-15T14:01:41;7.43;;;4.10;;
9076;SDS011;4574;51.072;17.174;2023-04-15T14:04:10;4.57;;;2.67;;
9076;SDS011;4574;51.072;17.174;2023-04-15T14:06:39;1.70;;;1.60;;
9076;SDS011;4574;51.072;17.174;2023-04-15T14:09:10;3.10;;;1.50;;
9076;SDS011;4574;51.072;17.174;2023-04-15T14:11:39;69.93;;;21.27;;
9076;SDS011;4574;51.072;17.174;2023-04-15T14:14:07;77.80;;;27.37;;
9076;SDS011;4574;51.072;17.174;2023-04-15T14:16:36;30.33;;;6.53;;
9076;SDS011;4574;51.072;17.174;2023-04-15T14:19:05;94.13;;;36.77;;
9076;SDS011;4574;51.072;17.174;2023-04-15T14:21:34;151.33;;;95.90;;
9076;SDS011;4574;51.072;17.174;2023-04-15T14:24:02;71.70;;;24.23;;
9076;SDS011;4574;51.072;17.174;2023-04-15T14:26:33;82.33;;;47.90;;
9076;SDS011;4574;51.072;17.174;2023-04-15T14:29:01;57.77;;;41.20;;
9076;SDS011;4574;51.072;17.174;2023-04-15T14:31:30;45.60;;;14.40;;
9076;SDS011;4574;51.072;17.174;2023-04-15T14:33:59;4.50;;;2.40;;
9076;SDS011;4574;51.072;17.174;2023-04-15T14:36:28;20.73;;;4.43;;
9076;SDS011;4574;51.072;17.174;2023-04-15T14:38:57;13.83;;;3.70;;
9076;SDS011;4574;51.072;17.174;2023-04-15T14:41:26;3.43;;;2.20;;
9076;SDS011;4574;51.072;17.174;2023-04-15T14:43:56;22.83;;;5.43;;
9076;SDS011;4574;51.072;17.174;2023-04-15T14:46:24;8.30;;;3.00;;
9076;SDS011;4574;51.072;17.174;2023-04-15T14:48:53;4.70;;;3.07;;
9076;SDS011;4574;51.072;17.174;2023-04-15T14:51:22;6.63;;;2.70;;
9076;SDS011;4574;51.072;17.174;2023-04-15T14:53:50;13.53;;;4.50;;
9076;SDS011;4574;51.072;17.174;2023-04-15T14:56:19;13.93;;;3.93;;
9076;SDS011;4574;51.072;17.174;2023-04-15T14:58:47;15.23;;;5.90;;
9076;SDS011;4574;51.072;17.174;2023-04-15T15:01:20;15.10;;;12.57;;
9076;SDS011;4574;51.072;17.174;2023-04-15T15:03:48;37.17;;;25.50;;
9076;SDS011;4574;51.072;17.174;2023-04-15T15:06:19;38.53;;;25.80;;
9076;SDS011;4574;51.072;17.174;2023-04-15T15:08:50;16.10;;;9.23;;
9076;SDS011;4574;51.072;17.174;2023-04-15T15:11:19;24.50;;;18.30;;
9076;SDS011;4574;51.072;17.174;2023-04-15T15:13:48;21.67;;;16.00;;
9076;SDS011;4574;51.072;17.174;2023-04-15T15:16:16;59.67;;;18.37;;